Latest Weather Observations for Scoresby

IDV60901

Issued at 9:51 pm EST Thursday 22 August 2019 (issued every 10 minutes, with the page automatically refreshed every 10 minutes)

About weather observations | Map of Melbourne area stations | Latest observations for Melbourne area | Other Formats
Station Details ID: 086104 Name: SCORESBY RESEARCH INSTITUTE Lat: -37.87 Lon: 145.26 Height: 80.0 m
Data from the previous 72 hours. | See also: Recent months at Scoresby
Date/Time
EST
Temp
°C
App
Temp
°C
Dew
Point
°C
Rel
Hum
%
Delta-T
°C
Wind Press
QNH
hPa
Press
MSL
hPa
Rain since
9am
mm
Dir  Spd
km/h
Gust
km/h
Spd
kts
Gust
kts
22/09:30pm 5.0 3.4 2.7 85 0.9 CALM 0 0 0 0 - - 0.0
22/09:00pm 5.5 3.9 2.5 81 1.2 CALM 0 0 0 0 - - 0.0
22/08:30pm 6.0 4.4 2.5 78 1.4 CALM 0 0 0 0 - - 0.0
22/08:00pm 6.7 5.1 2.2 73 1.8 CALM 0 0 0 0 - - 0.0
22/07:30pm 8.0 5.7 2.5 68 2.3 SSE 4 9 2 5 - - 0.0
22/07:00pm 8.3 6.0 3.0 69 2.3 SW 4 9 2 5 - - 0.0
22/06:30pm 8.8 6.1 2.8 66 2.6 SW 6 9 3 5 - - 0.0
22/06:00pm 9.7 6.1 3.2 64 2.8 SW 11 20 6 11 - - 0.0
22/05:30pm 10.3 5.6 2.9 60 3.2 SW 17 24 9 13 - - 0.0
22/05:00pm 11.1 7.6 3.4 59 3.4 SW 11 24 6 13 - - 0.0
22/04:30pm 12.1 8.0 4.1 58 3.6 SW 15 26 8 14 - - 0.0
22/04:00pm 12.2 7.7 4.2 58 3.6 SW 17 30 9 16 - - 0.0
22/03:30pm 11.8 6.7 3.3 56 3.8 SW 19 28 10 15 - - 0.0
22/03:00pm 12.0 6.8 3.3 55 3.9 SW 20 39 11 21 - - 0.0
22/02:30pm 12.7 7.4 3.1 52 4.3 SW 20 32 11 17 - - 0.0
22/02:00pm 12.9 7.8 3.0 51 4.4 SW 19 30 10 16 - - 0.0
22/01:30pm 12.6 7.4 2.7 51 4.4 SW 19 30 10 16 - - 0.0
22/01:00pm 11.9 6.6 3.2 55 3.8 SSW 20 32 11 17 - - 0.0
22/12:30pm 10.9 6.6 5.2 68 2.6 SW 17 24 9 13 - - 0.0
22/12:00pm 10.6 5.0 5.2 69 2.5 SW 24 41 13 22 - - 0.0
22/11:30am 11.7 7.3 4.7 62 3.2 SSW 17 26 9 14 - - 0.0
22/11:00am 10.9 5.9 4.6 65 2.8 SSW 20 39 11 21 - - 0.0
22/10:30am 11.7 6.6 4.0 59 3.5 SSW 20 32 11 17 - - 0.0
22/10:00am 11.7 7.4 5.3 65 3.0 SSW 17 30 9 16 - - 0.0
22/09:30am 10.0 5.1 4.0 66 2.7 SSW 19 32 10 17 - - 0.0
22/09:00am 10.9 6.9 5.0 67 2.7 SW 15 26 8 14 - - 8.8
22/08:30am 9.7 7.2 4.9 72 2.2 SSW 7 17 4 9 - - 8.8
22/08:00am 10.0 6.7 4.6 69 2.4 SW 11 20 6 11 - - 8.8
22/07:30am 8.9 5.4 3.5 69 2.3 SW 11 19 6 10 - - 8.8
22/07:00am 8.8 5.2 4.8 76 1.8 SSW 13 20 7 11 - - 8.8
22/06:30am 8.5 6.3 6.0 84 1.1 SW 7 17 4 9 - - 8.8
22/06:00am 9.0 6.7 7.5 90 0.7 WSW 9 13 5 7 - - 8.8
22/05:30am 9.4 6.1 8.0 91 0.7 WSW 15 26 8 14 - - 7.6
22/05:00am 9.5 5.4 7.9 90 0.8 SW 19 32 10 17 - - 6.0
22/04:30am 10.6 7.0 6.9 78 1.8 SW 15 24 8 13 - - 4.6
22/04:00am 10.3 6.8 7.0 80 1.6 SW 15 26 8 14 - - 4.6
22/03:30am 10.8 6.9 6.9 77 1.9 WSW 17 30 9 16 - - 4.6
22/03:00am 10.6 7.3 8.2 85 1.2 SW 15 30 8 16 - - 4.6
22/02:30am 10.5 7.9 9.3 92 0.6 WSW 13 22 7 12 - - 4.6
22/02:00am 10.4 6.5 9.3 93 0.5 WSW 20 33 11 18 - - 4.6
22/01:30am 10.8 7.1 10.0 95 0.4 WSW 20 35 11 19 - - 3.4
22/01:00am 11.2 7.4 9.8 91 0.7 W 20 35 11 19 - - 0.8
22/12:30am 11.0 7.8 9.8 92 0.6 W 17 32 9 17 - - 0.8
22/12:00am 11.3 7.3 9.2 87 1.1 W 20 37 11 20 - - 0.2
 
Date/Time
EST
Temp
°C
App
Temp
°C
Dew
Point
°C
Rel
Hum
%
Delta-T
°C
Wind Press
QNH
hPa
Press
MSL
hPa
Rain since
9am
mm
Dir  Spd
km/h
Gust
km/h
Spd
kts
Gust
kts
21/11:30pm 12.3 7.3 8.2 76 2.0 WNW 24 37 13 20 - - 0.0
21/11:00pm 12.3 7.7 8.0 75 2.1 W 22 39 12 21 - - 0.0
21/10:34pm 12.1 6.4 8.2 77 1.9 WNW 28 48 15 26 - - 0.0
21/10:30pm 12.0 6.6 8.1 77 1.9 WNW 26 48 14 26 - - 0.0
21/10:00pm 12.7 8.3 7.4 70 2.6 WNW 20 44 11 24 - - 0.0
21/09:30pm 12.7 8.3 7.4 70 2.6 WNW 20 35 11 19 - - 0.0
21/09:00pm 12.6 7.9 7.7 72 2.4 WNW 22 37 12 20 - - 0.0
21/08:30pm 13.0 8.6 7.2 68 2.8 WNW 20 37 11 20 - - 0.0
21/08:00pm 13.1 8.6 7.1 67 2.9 WNW 20 39 11 21 - - 0.0
21/07:30pm 12.9 8.3 6.7 66 3.0 WNW 20 39 11 21 - - 0.0
21/07:00pm 12.7 8.2 6.3 65 3.0 W 19 32 10 17 - - 0.0
21/06:30pm 13.0 8.5 6.1 63 3.3 WNW 19 37 10 20 - - 0.0
21/06:00pm 13.1 8.7 6.5 64 3.2 W 19 30 10 16 - - 0.0
21/05:30pm 13.2 9.0 5.9 61 3.5 W 17 30 9 16 - - 0.0
21/05:00pm 13.4 8.8 6.5 63 3.3 W 20 32 11 17 - - 0.0
21/04:30pm 13.8 9.3 6.2 60 3.6 W 19 39 10 21 - - 0.0
21/04:00pm 13.9 10.0 5.5 57 4.0 W 15 28 8 15 - - 0.0
21/03:30pm 14.3 9.2 6.2 58 3.9 WSW 22 35 12 19 - - 0.0
21/03:00pm 14.8 9.7 5.9 55 4.3 WSW 22 39 12 21 - - 0.0
21/02:30pm 15.0 9.5 5.8 54 4.4 W 24 43 13 23 - - 0.0
21/02:00pm 14.7 9.3 6.5 58 4.0 W 24 37 13 20 - - 0.0
21/01:30pm 14.8 10.1 6.1 56 4.2 W 20 35 11 19 - - 0.0
21/01:00pm 14.6 10.2 6.7 59 3.9 W 19 35 10 19 - - 0.0
21/12:30pm 14.2 9.2 6.6 60 3.7 W 22 33 12 18 - - 0.0
21/12:00pm 13.5 8.5 6.4 62 3.4 WSW 22 35 12 19 - - 0.0
21/11:30am 13.8 9.6 8.2 69 2.8 WSW 20 41 11 22 - - 0.0
21/11:00am 13.3 9.0 7.7 69 2.8 WSW 20 32 11 17 - - 0.0
21/10:30am 13.5 9.2 7.9 69 2.8 W 20 33 11 18 - - 0.0
21/10:00am 13.0 9.0 8.1 72 2.4 W 19 35 10 19 - - 0.0
21/09:30am 12.3 7.9 8.8 79 1.8 W 22 37 12 20 - - 0.0
21/09:00am 11.9 8.5 9.3 84 1.3 W 17 26 9 14 - - 1.8
21/08:30am 11.7 8.2 8.9 83 1.4 W 17 32 9 17 - - 1.8
21/08:00am 11.5 8.0 8.9 84 1.3 W 17 30 9 16 - - 1.8
21/07:30am 11.5 8.0 8.7 83 1.4 W 17 28 9 15 - - 1.6
21/07:00am 11.3 7.5 9.0 86 1.1 W 19 28 10 15 - - 1.6
21/06:30am 11.5 8.5 9.4 87 1.1 W 15 26 8 14 - - 1.6
21/06:00am 11.3 8.1 9.9 91 0.7 W 17 33 9 18 - - 1.4
21/05:30am 11.5 9.1 10.1 91 0.7 W 13 22 7 12 - - 1.2
21/05:00am 12.0 8.3 9.4 84 1.3 W 19 33 10 18 - - 0.8
21/04:30am 11.4 8.6 10.0 91 0.7 WNW 15 24 8 13 - - 0.8
21/04:00am 11.7 7.5 9.6 87 1.1 WNW 22 46 12 25 - - 0.2
21/03:30am 12.7 9.1 8.4 75 2.1 WNW 17 30 9 16 - - 0.0
21/03:00am 12.5 10.3 8.0 74 2.2 NW 9 17 5 9 - - 0.0
21/02:30am 12.4 9.5 8.1 75 2.1 NW 13 24 7 13 - - 0.0
21/02:00am 12.4 9.4 7.9 74 2.2 NW 13 30 7 16 - - 0.0
21/01:30am 12.2 8.9 7.9 75 2.1 NW 15 28 8 15 - - 0.0
21/01:00am 12.3 8.6 8.0 75 2.1 WNW 17 32 9 17 - - 0.0
21/12:30am 12.4 9.8 7.7 73 2.3 WNW 11 19 6 10 - - 0.0
21/12:00am 12.4 9.0 7.5 72 2.4 NW 15 24 8 13 - - 0.0
 
Date/Time
EST
Temp
°C
App
Temp
°C
Dew
Point
°C
Rel
Hum
%
Delta-T
°C
Wind Press
QNH
hPa
Press
MSL
hPa
Rain since
9am
mm
Dir  Spd
km/h
Gust
km/h
Spd
kts
Gust
kts
20/11:30pm 12.4 9.3 7.3 71 2.5 NW 13 28 7 15 - - 0.0
20/11:00pm 12.4 9.3 7.1 70 2.6 NW 13 26 7 14 - - 0.0
20/10:30pm 12.4 9.6 7.1 70 2.6 NW 11 20 6 11 - - 0.0
20/10:00pm 12.3 9.9 7.2 71 2.5 NW 9 20 5 11 - - 0.0
20/09:30pm 12.2 9.1 7.1 71 2.5 NW 13 24 7 13 - - 0.0
20/09:00pm 12.2 8.3 7.3 72 2.4 NW 17 32 9 17 - - 0.0
20/08:30pm 12.1 9.1 7.6 74 2.2 NW 13 24 7 13 - - 0.0
20/08:00pm 12.0 7.3 7.7 75 2.1 WNW 22 35 12 19 - - 0.0
20/07:30pm 13.5 8.5 6.4 62 3.4 WNW 22 37 12 20 - - 0.0
20/07:17pm 13.9 8.8 6.0 59 3.8 NW 22 46 12 25 - - 0.0
20/07:14pm 13.9 9.4 6.0 59 3.8 NW 19 46 10 25 - - 0.0
20/07:00pm 13.7 10.8 6.3 61 3.6 NW 11 22 6 12 - - 0.0
20/06:30pm 14.1 9.4 6.2 59 3.8 WNW 20 35 11 19 - - 0.0
20/06:00pm 13.9 10.4 7.0 63 3.4 W 15 26 8 14 - - 0.0
20/05:30pm 13.7 11.4 7.5 66 3.1 W 9 17 5 9 - - 0.0
20/05:00pm 14.6 10.5 6.2 57 4.1 WNW 17 33 9 18 - - 0.0
20/04:30pm 14.8 10.7 6.1 56 4.2 NW 17 39 9 21 - - 0.0
20/04:00pm 12.5 10.1 7.0 69 2.7 NNE 9 17 5 9 - - 0.0
20/03:30pm 12.3 10.3 7.0 70 2.6 NNE 7 11 4 6 - - 0.0
20/03:00pm 12.3 9.5 6.8 69 2.6 N 11 22 6 12 - - 0.0
20/02:30pm 12.6 10.1 6.4 66 3.0 NNW 9 20 5 11 - - 0.0
20/02:00pm 12.2 10.3 6.7 69 2.6 N 6 13 3 7 - - 0.0
20/01:30pm 11.7 9.2 6.4 70 2.5 N 9 19 5 10 - - 0.0
20/01:00pm 11.6 9.4 6.1 69 2.6 N 7 13 4 7 - - 0.0
20/12:30pm 12.5 9.1 6.1 65 3.0 NW 13 24 7 13 - - 0.0
20/12:00pm 12.5 8.4 6.1 65 3.0 NW 17 28 9 15 - - 0.0
20/11:30am 12.1 7.9 5.7 65 3.0 NNW 17 28 9 15 - - 0.0
20/11:00am 11.7 7.5 5.8 67 2.8 NNW 17 30 9 16 - - 0.0
20/10:30am 11.7 7.9 5.6 66 2.8 NW 15 30 8 16 - - 0.0
20/10:00am 11.3 7.1 5.6 68 2.6 NW 17 37 9 20 - - 0.0
20/09:30am 11.1 7.3 5.6 69 2.5 NW 15 26 8 14 - - 0.0
20/09:00am 10.7 7.6 5.7 71 2.3 NW 11 28 6 15 - - 0.0
20/08:30am 10.2 7.1 5.4 72 2.2 NW 11 19 6 10 - - 0.0
20/08:00am 10.1 6.9 5.1 71 2.3 NNW 11 19 6 10 - - 0.0
20/07:30am 9.9 6.7 4.9 71 2.3 NNW 11 22 6 12 - - 0.0
20/07:00am 9.9 7.0 4.7 70 2.3 NNW 9 15 5 8 - - 0.0
20/06:30am 9.8 7.3 4.8 71 2.3 NNW 7 11 4 6 - - 0.0
20/06:00am 9.4 7.1 4.8 73 2.1 NNW 6 11 3 6 - - 0.0
20/05:30am 9.4 7.1 4.8 73 2.1 N 6 9 3 5 - - 0.0
20/05:00am 9.3 6.8 4.9 74 2.0 N 7 13 4 7 - - 0.0
20/04:30am 9.3 6.8 4.9 74 2.0 NNW 7 20 4 11 - - 0.0
20/04:00am 9.1 6.7 5.1 76 1.8 N 7 13 4 7 - - 0.0
20/03:30am 8.7 6.9 5.4 80 1.5 N 4 11 2 6 - - 0.0
20/03:00am 8.7 6.9 5.4 80 1.5 N 4 9 2 5 - - 0.0
20/02:30am 8.9 6.5 5.1 77 1.7 N 7 15 4 8 - - 0.0
20/02:00am 8.5 6.0 4.7 77 1.7 N 7 13 4 7 - - 0.0
20/01:30am 8.5 6.0 4.7 77 1.7 N 7 11 4 6 - - 0.0
20/01:00am 8.5 5.9 4.3 75 1.8 N 7 13 4 7 - - 0.0
20/12:30am 8.3 5.7 4.1 75 1.8 NNE 7 13 4 7 - - 0.0
20/12:00am 8.2 5.8 4.2 76 1.8 NNE 6 11 3 6 - - 0.0
 
Date/Time
EST
Temp
°C
App
Temp
°C
Dew
Point
°C
Rel
Hum
%
Delta-T
°C
Wind Press
QNH
hPa
Press
MSL
hPa
Rain since
9am
mm
Dir  Spd
km/h
Gust
km/h
Spd
kts
Gust
kts
19/11:30pm 7.6 5.0 4.2 79 1.5 NNE 7 11 4 6 - - 0.0
19/11:00pm 6.8 4.1 3.9 82 1.2 NNE 7 9 4 5 - - 0.0
19/10:30pm 7.0 4.3 3.8 80 1.4 NNE 7 11 4 6 - - 0.0
19/10:00pm 7.7 5.2 3.9 77 1.6 NNE 6 9 3 5 - - 0.0

Latest Capital City Observations: Canberra | Sydney | Melbourne | Brisbane | Adelaide | Perth | Hobart | Darwin

Other formats

Comma delimited format used in spreadsheet applications
http://www.bom.gov.au/fwo/IDV60901/IDV60901.95867.axf

JavaScript Object Notation format (JSON) in row-major order
http://www.bom.gov.au/fwo/IDV60901/IDV60901.95867.json

Data quality

Most of these data are generated automatically and are frequently updated. Quality checks on data are not normally performed. It is possible for incorrect values to appear. Refer to information at About Latest Weather Observations and please check the disclaimer before using these data.